Time;durP1;ratioP1;P1;durP2;ratioP2;P2;SDS_P1;SDS_P2;PMS_P1;PMS_P2;Temp;Humidity;BMP_temperature;BMP_pressure;BME280_temperature;BME280_humidity;BME280_pressure;Samples;Min_cycle;Max_cycle;Signal;HPM_P1;HPM_P2
2024/04/22 00:00:28;;;;;;;2.00;0.30;;;;;;;2.23;71.40;101969.06;5489157;26;20460;-64
2024/04/22 00:02:59;;;;;;;2.00;0.30;;;;;;;2.23;71.80;101968.25;5489344;26;21147;-64
2024/04/22 00:05:24;;;;;;;2.40;0.93;;;;;;;2.19;72.70;101964.34;5489455;26;20219;-65
2024/04/22 00:07:53;;;;;;;2.03;0.50;;;;;;;2.21;73.01;101962.28;5488972;26;20464;-65
2024/04/22 00:10:18;;;;;;;2.00;0.30;;;;;;;2.24;73.06;101968.03;5489266;26;20215;-66
2024/04/22 00:12:47;;;;;;;2.00;0.30;;;;;;;2.20;73.84;101964.13;5488934;26;20468;-66
2024/04/22 00:15:12;;;;;;;2.00;0.30;;;;;;;2.13;74.41;101962.53;5489229;26;20261;-66
2024/04/22 00:17:40;;;;;;;2.00;0.30;;;;;;;2.06;74.86;101965.22;5488856;26;20463;-66
2024/04/22 00:20:09;;;;;;;2.27;0.77;;;;;;;2.02;74.31;101959.47;5488855;26;20738;-64
2024/04/22 00:22:37;;;;;;;2.17;0.70;;;;;;;1.95;74.55;101963.19;5489030;26;20460;-64
2024/04/22 00:25:03;;;;;;;2.00;0.30;;;;;;;1.85;75.37;101960.13;5489061;26;20500;-64
2024/04/22 00:27:32;;;;;;;2.00;0.30;;;;;;;1.77;75.95;101956.66;5488383;26;20460;-64
2024/04/22 00:29:57;;;;;;;3.07;0.80;;;;;;;1.67;74.39;101947.41;5488536;26;20514;-65
2024/04/22 00:32:25;;;;;;;2.30;0.60;;;;;;;1.59;76.11;101953.78;5489156;26;20456;-65
2024/04/22 00:34:51;;;;;;;2.00;0.30;;;;;;;1.57;76.63;101957.72;5488936;26;20215;-64
2024/04/22 00:37:22;;;;;;;2.40;0.40;;;;;;;1.57;76.59;101955.03;5488754;26;21039;-64
2024/04/22 00:39:48;;;;;;;2.00;0.40;;;;;;;1.51;76.87;101946.84;5488250;26;20247;-64
2024/04/22 00:42:16;;;;;;;2.00;0.30;;;;;;;1.55;76.27;101949.06;5488556;26;20577;-64
2024/04/22 00:44:42;;;;;;;2.40;0.70;;;;;;;1.59;76.11;101952.97;5488691;26;20261;-64
2024/04/22 00:47:10;;;;;;;2.00;0.30;;;;;;;1.55;75.33;101944.56;5488588;26;20812;-65
2024/04/22 00:49:36;;;;;;;2.00;0.40;;;;;;;1.54;75.99;101948.25;5488047;26;20231;-64
2024/04/22 00:52:05;;;;;;;2.10;0.43;;;;;;;1.49;77.26;101953.41;5488826;26;20468;-64
2024/04/22 00:54:35;;;;;;;2.00;0.30;;;;;;;1.59;77.80;101948.44;5492306;26;20611;-65
2024/04/22 00:57:04;;;;;;;5.00;0.87;;;;;;;1.61;78.24;101946.41;5492333;26;20607;-66
2024/04/22 00:59:30;;;;;;;2.00;0.30;;;;;;;1.63;78.23;101939.00;5491760;26;20971;-64
2024/04/22 01:01:58;;;;;;;2.00;0.30;;;;;;;1.65;77.48;101947.63;5491927;26;20503;-65
2024/04/22 01:04:24;;;;;;;2.20;0.93;;;;;;;1.53;78.28;101949.28;5491858;26;20749;-65
2024/04/22 01:06:52;;;;;;;2.00;0.30;;;;;;;1.51;77.76;101946.84;5492099;26;20456;-65
2024/04/22 01:09:18;;;;;;;2.00;0.30;;;;;;;1.51;77.88;101946.00;5492110;26;20999;-65
2024/04/22 01:11:50;;;;;;;2.00;0.30;;;;;;;1.48;77.80;101941.09;5492489;26;20524;-65
2024/04/22 01:14:15;;;;;;;2.10;0.50;;;;;;;1.49;78.32;101953.41;5491728;26;20227;-65
2024/04/22 01:16:44;;;;;;;2.00;0.30;;;;;;;1.44;77.78;101948.69;5492207;26;20515;-65
2024/04/22 01:19:09;;;;;;;2.00;0.30;;;;;;;1.46;77.84;101946.63;5491704;26;20218;-65
2024/04/22 01:21:40;;;;;;;2.00;0.30;;;;;;;1.42;77.49;101941.91;5455498;26;21017;-65
2024/04/22 01:24:06;;;;;;;2.50;0.50;;;;;;;1.44;78.16;101940.66;5455504;26;20340;-65
2024/04/22 01:26:34;;;;;;;2.20;0.60;;;;;;;1.46;78.48;101954.66;5482069;26;20472;-65
2024/04/22 01:29:00;;;;;;;2.00;0.40;;;;;;;1.48;79.94;101946.41;5491819;26;20261;-66
2024/04/22 01:31:28;;;;;;;2.10;0.50;;;;;;;1.45;80.51;101952.16;5491377;26;20952;-66
2024/04/22 01:33:54;;;;;;;1.97;0.30;;;;;;;1.51;80.16;101951.34;5491756;26;20239;-66
2024/04/22 01:36:23;;;;;;;2.00;0.30;;;;;;;1.54;80.24;101942.09;5491493;26;20855;-66
2024/04/22 01:38:51;;;;;;;2.30;0.80;;;;;;;1.51;80.84;101946.00;5491650;26;20806;-66
2024/04/22 01:41:19;;;;;;;2.00;0.30;;;;;;;1.49;81.05;101942.72;5491481;26;20512;-66
2024/04/22 01:43:45;;;;;;;2.00;0.30;;;;;;;1.48;81.49;101941.09;5491584;26;20460;-66
2024/04/22 01:46:13;;;;;;;2.00;0.40;;;;;;;1.49;81.74;101940.03;5491558;26;21068;-66
2024/04/22 01:48:39;;;;;;;2.00;0.40;;;;;;;1.46;81.56;101943.97;5491383;26;20560;-66
2024/04/22 01:51:07;;;;;;;2.10;0.50;;;;;;;1.52;80.91;101942.31;5491606;26;20495;-66
2024/04/22 01:53:33;;;;;;;2.00;0.30;;;;;;;1.48;81.59;101938.41;5490633;26;20290;-66
2024/04/22 01:56:03;;;;;;;2.10;0.50;;;;;;;1.45;81.20;101936.16;5491526;26;20943;-66
2024/04/22 01:58:29;;;;;;;2.10;0.70;;;;;;;1.37;82.27;101931.00;5490748;26;20270;-66
2024/04/22 02:00:57;;;;;;;3.13;1.67;;;;;;;1.40;81.22;101931.44;5491164;26;20460;-66
2024/04/22 02:03:23;;;;;;;2.10;0.40;;;;;;;1.40;81.89;101934.09;5490532;26;20270;-66
2024/04/22 02:05:51;;;;;;;2.00;0.30;;;;;;;1.37;80.67;101933.69;5491375;26;20448;-66
2024/04/22 02:08:17;;;;;;;1.97;0.40;;;;;;;1.33;80.92;101932.44;5491123;26;20568;-66
2024/04/22 02:10:45;;;;;;;2.00;0.40;;;;;;;1.34;79.79;101936.78;5491380;26;20507;-66
2024/04/22 02:13:13;;;;;;;2.00;0.30;;;;;;;1.34;80.96;101931.44;5491070;26;20235;-66
2024/04/22 02:15:42;;;;;;;2.00;0.30;;;;;;;1.35;81.12;101935.75;5491236;26;20565;-65
2024/04/22 02:18:08;;;;;;;2.00;0.30;;;;;;;1.35;80.91;101931.22;5491069;26;20578;-65
2024/04/22 02:20:36;;;;;;;2.00;0.30;;;;;;;1.32;81.03;101933.47;5490630;26;20476;-66
2024/04/22 02:23:02;;;;;;;1.93;0.30;;;;;;;1.24;80.66;101934.53;5491054;26;20561;-66
2024/04/22 02:25:30;;;;;;;2.00;0.30;;;;;;;1.30;80.54;101925.69;5491693;26;21163;-66
2024/04/22 02:27:56;;;;;;;1.93;0.30;;;;;;;1.23;81.89;101933.69;5491046;26;20323;-66
2024/04/22 02:30:26;;;;;;;2.00;0.30;;;;;;;1.04;83.45;101926.50;5490167;26;20472;-65
2024/04/22 02:32:52;;;;;;;2.63;0.87;;;;;;;1.05;82.45;101928.16;5490852;26;20746;-65
2024/04/22 02:35:20;;;;;;;2.00;0.30;;;;;;;1.03;81.98;101924.88;5490512;26;20460;-65
2024/04/22 02:37:46;;;;;;;2.00;0.30;;;;;;;1.13;83.21;101925.28;5491019;26;20227;-65
2024/04/22 02:40:15;;;;;;;2.00;0.30;;;;;;;1.06;82.68;101913.78;5491152;26;20448;-65
2024/04/22 02:42:41;;;;;;;1.93;0.30;;;;;;;1.01;82.44;101910.91;5490284;26;20582;-66
2024/04/22 02:45:09;;;;;;;2.00;0.30;;;;;;;0.90;82.59;101911.53;5490299;26;20448;-66
2024/04/22 02:47:37;;;;;;;1.90;0.30;;;;;;;0.84;83.63;101913.16;5474466;20;20748;-66
2024/04/22 02:50:06;;;;;;;2.00;0.30;;;;;;;0.87;84.11;101910.06;5454527;26;20446;-66
2024/04/22 02:52:32;;;;;;;1.97;0.30;;;;;;;0.79;86.04;101906.78;5430175;26;20523;-68
2024/04/22 02:55:00;;;;;;;2.00;0.30;;;;;;;0.82;86.18;101909.06;5397917;26;20460;-66
2024/04/22 02:57:26;;;;;;;2.10;0.80;;;;;;;0.81;86.33;101910.09;5385218;26;20777;-66
2024/04/22 02:59:54;;;;;;;2.00;0.30;;;;;;;0.79;86.88;101904.13;5383023;26;20468;-66
2024/04/22 03:02:19;;;;;;;2.00;0.40;;;;;;;0.75;86.64;101904.53;5383348;26;20246;-66
2024/04/22 03:04:53;;;;;;;1.90;0.30;;;;;;;0.76;86.83;101902.69;5383620;26;20591;-66
2024/04/22 03:07:18;;;;;;;2.00;0.40;;;;;;;0.65;87.83;101901.44;5385567;26;20331;-66
2024/04/22 03:09:47;;;;;;;1.90;0.30;;;;;;;0.65;87.70;101909.44;5382872;26;20787;-66
2024/04/22 03:12:13;;;;;;;1.93;0.30;;;;;;;0.57;88.57;101904.28;5383050;26;20222;-66
2024/04/22 03:14:41;;;;;;;2.00;0.30;;;;;;;0.53;89.55;101896.88;5394536;26;20474;-67
2024/04/22 03:17:07;;;;;;;2.00;0.30;;;;;;;0.40;89.64;101898.53;5417067;26;20455;-66
2024/04/22 03:19:35;;;;;;;2.30;0.70;;;;;;;0.40;89.99;101906.50;5417414;26;20515;-66
2024/04/22 03:22:04;;;;;;;2.00;0.40;;;;;;;0.53;88.28;101904.88;5418044;26;20217;-66
2024/04/22 03:24:32;;;;;;;2.00;0.40;;;;;;;0.49;85.88;101909.81;5402138;26;20544;-67
2024/04/22 03:26:57;;;;;;;2.83;0.50;;;;;;;0.45;86.12;101905.91;5413637;26;20475;-66
2024/04/22 03:29:26;;;;;;;1.93;0.30;;;;;;;0.45;86.56;101897.91;5417978;26;20786;-66
2024/04/22 03:31:51;;;;;;;2.57;0.90;;;;;;;0.35;87.05;101908.13;5418108;26;20225;-66
2024/04/22 03:34:19;;;;;;;2.00;0.50;;;;;;;0.34;86.97;101906.47;5416025;26;20525;-67
2024/04/22 03:36:48;;;;;;;2.00;0.40;;;;;;;0.22;87.87;101904.41;5399250;26;20237;-67
2024/04/22 03:39:19;;;;;;;2.00;0.30;;;;;;;0.28;87.62;101896.63;5417915;26;20454;-67
2024/04/22 03:41:47;;;;;;;1.90;0.30;;;;;;;0.27;87.58;101898.47;5417905;26;20455;-67
2024/04/22 03:44:15;;;;;;;1.97;0.40;;;;;;;0.27;85.92;101911.81;5417711;26;20523;-67
2024/04/22 03:52:12;;;;;;;2.00;0.40;;;;;;;0.16;86.87;101909.69;5420734;26;20528;-67
2024/04/22 03:54:43;;;;;;;2.00;0.30;;;;;;;0.15;87.43;101903.56;5417542;26;20471;-67
2024/04/22 03:57:11;;;;;;;2.00;0.30;;;;;;;0.12;88.38;101903.94;5398554;26;20595;-69
2024/04/22 03:59:41;;;;;;;2.00;0.30;;;;;;;0.16;88.05;101907.03;5414848;26;20463;-66
2024/04/22 04:02:07;;;;;;;1.90;0.40;;;;;;;0.17;89.00;101909.50;5416064;26;20508;-66
2024/04/22 04:04:35;;;;;;;2.00;0.30;;;;;;;0.23;89.15;101910.56;5417215;26;20821;-66
2024/04/22 04:07:01;;;;;;;1.90;0.30;;;;;;;0.24;89.82;101909.53;5414676;26;20233;-66
2024/04/22 04:09:29;;;;;;;2.20;0.60;;;;;;;0.27;88.87;101911.81;5392597;26;20460;-66
2024/04/22 04:11:58;;;;;;;1.90;0.30;;;;;;;0.16;89.78;101909.69;5381996;26;20261;-66
2024/04/22 04:14:26;;;;;;;1.97;0.30;;;;;;;0.19;89.11;101912.78;5381801;26;20524;-66
2024/04/22 04:16:52;;;;;;;1.97;0.30;;;;;;;0.24;89.41;101909.53;5381851;26;20532;-66
2024/04/22 04:19:20;;;;;;;2.00;0.30;;;;;;;0.21;89.01;101907.25;5401662;26;20467;-66
2024/04/22 04:21:45;;;;;;;2.10;0.47;;;;;;;0.23;88.93;101911.38;5381745;26;20222;-66
2024/04/22 04:24:14;;;;;;;1.93;0.30;;;;;;;0.30;88.94;101914.03;5381714;26;20520;-66
2024/04/22 04:26:39;;;;;;;1.90;0.30;;;;;;;0.27;89.80;101910.94;5382827;26;20348;-66
2024/04/22 04:29:10;;;;;;;2.03;0.53;;;;;;;0.24;89.22;101910.34;5401819;26;20471;-66
2024/04/22 04:31:36;;;;;;;2.00;0.30;;;;;;;0.30;88.33;101913.22;5415153;26;20705;-66
2024/04/22 04:34:04;;;;;;;1.90;0.30;;;;;;;0.41;88.73;101913.47;5420487;26;20518;-66
2024/04/22 04:36:30;;;;;;;2.80;1.00;;;;;;;0.52;89.06;101909.41;5420456;26;20256;-66
2024/04/22 04:38:58;;;;;;;2.00;0.30;;;;;;;0.63;89.26;101902.66;5416356;26;20463;-66
2024/04/22 04:41:24;;;;;;;1.90;0.30;;;;;;;0.68;89.78;101910.88;5405167;26;20233;-66
2024/04/22 04:43:52;;;;;;;2.10;0.50;;;;;;;0.78;89.46;101913.97;5419159;26;20519;-66
2024/04/22 04:46:20;;;;;;;2.00;0.30;;;;;;;0.81;89.42;101910.09;5420469;26;20267;-66
2024/04/22 04:48:48;;;;;;;2.00;0.47;;;;;;;0.88;89.53;101910.91;5420169;26;20467;-66
2024/04/22 04:51:14;;;;;;;2.00;0.40;;;;;;;0.92;89.64;101915.63;5401665;26;20570;-66
2024/04/22 04:53:42;;;;;;;2.30;1.17;;;;;;;1.05;88.46;101906.81;5397044;26;20988;-66
2024/04/22 04:56:08;;;;;;;2.00;0.30;;;;;;;1.10;88.02;101912.34;5384878;26;20218;-66
2024/04/22 04:58:36;;;;;;;1.93;0.30;;;;;;;1.21;87.86;101909.06;5384858;26;20517;-66
2024/04/22 05:01:02;;;;;;;2.00;0.40;;;;;;;1.32;87.79;101909.47;5396602;26;20279;-66
2024/04/22 05:03:33;;;;;;;3.63;0.77;;;;;;;1.41;87.78;101914.38;5392128;26;20468;-66
2024/04/22 05:05:59;;;;;;;2.20;0.80;;;;;;;1.53;87.66;101925.25;5398179;26;20291;-66
2024/04/22 05:08:27;;;;;;;2.00;0.30;;;;;;;1.65;86.06;101920.94;5402922;26;20459;-66
2024/04/22 05:10:53;;;;;;;2.00;0.30;;;;;;;1.68;85.03;101915.19;5419915;26;20547;-66
2024/04/22 05:13:21;;;;;;;2.00;0.40;;;;;;;1.73;84.12;101915.38;5391283;26;20480;-66
2024/04/22 05:15:46;;;;;;;3.37;2.17;;;;;;;1.83;83.01;101911.44;5384582;26;20230;-66
2024/04/22 05:18:15;;;;;;;2.00;0.30;;;;;;;1.79;84.98;101918.22;5408840;26;20550;-66
2024/04/22 05:20:44;;;;;;;5.50;1.17;;;;;;;1.86;85.55;101914.50;5384348;26;20716;-66
2024/04/22 05:23:12;;;;;;;2.37;0.93;;;;;;;1.89;85.54;101913.25;5384176;26;20472;-66
2024/04/22 05:25:38;;;;;;;2.00;0.37;;;;;;;1.97;84.56;101908.50;5386260;26;20468;-66
2024/04/22 05:28:07;;;;;;;2.00;0.50;;;;;;;1.93;85.15;101912.63;5384204;26;20512;-66
2024/04/22 05:30:34;;;;;;;2.00;0.30;;;;;;;2.00;84.23;101913.44;5393957;26;20268;-65
2024/04/22 05:36:09;;;;;;;2.00;0.30;;;;;;;2.05;84.12;101901.28;5418073;26;20847;-66
2024/04/22 05:36:11;;;;;;;2.00;0.30;;;;;;;1.96;85.01;101908.72;5404435;26;20535;-65
2024/04/22 05:38:41;;;;;;;2.10;0.60;;;;;;;2.04;84.57;101911.16;5388902;26;20517;-66
2024/04/22 05:41:11;;;;;;;2.10;0.50;;;;;;;2.12;83.76;101910.09;5383187;26;20602;-66
2024/04/22 05:43:36;;;;;;;2.00;0.30;;;;;;;2.26;84.53;101917.03;5390157;26;21110;-66
2024/04/22 05:46:06;;;;;;;3.03;1.63;;;;;;;2.33;84.42;101915.13;5402880;26;20595;-66
2024/04/22 05:48:34;;;;;;;2.00;0.40;;;;;;;2.44;84.26;101913.66;5383912;26;20234;-67
2024/04/22 05:51:05;;;;;;;3.13;0.87;;;;;;;2.58;83.78;101919.75;5391951;26;20459;-68
2024/04/22 05:53:34;;;;;;;2.00;0.40;;;;;;;2.70;83.13;101905.47;5389446;26;20544;-67
2024/04/22 05:56:02;;;;;;;1.97;0.30;;;;;;;2.78;83.09;101907.88;5394425;26;20475;-67
2024/04/22 05:58:27;;;;;;;2.00;0.30;;;;;;;2.90;82.89;101908.00;5399570;26;20523;-67
2024/04/22 06:00:57;;;;;;;2.00;0.30;;;;;;;2.95;83.23;101904.69;5411897;26;21191;-67
2024/04/22 06:03:22;;;;;;;2.07;0.40;;;;;;;3.07;83.09;101907.47;5404763;26;20250;-67
2024/04/22 06:05:50;;;;;;;2.00;0.30;;;;;;;3.15;83.25;101916.06;5406603;26;20878;-66
2024/04/22 06:08:19;;;;;;;2.10;0.50;;;;;;;3.27;82.51;101908.94;5418962;26;20225;-67
2024/04/22 06:10:48;;;;;;;2.00;0.40;;;;;;;3.36;82.47;101911.34;5418279;26;20456;-68
2024/04/22 06:13:13;;;;;;;2.50;1.03;;;;;;;3.41;82.10;101914.16;5419162;26;20471;-68
2024/04/22 06:15:43;;;;;;;2.00;0.30;;;;;;;3.46;81.50;101914.34;5409446;26;20566;-66
2024/04/22 06:18:09;;;;;;;2.00;0.30;;;;;;;3.59;80.40;101914.22;5383669;26;20265;-67
2024/04/22 06:20:37;;;;;;;2.00;0.30;;;;;;;3.54;78.31;101908.69;5402208;26;20471;-67
2024/04/22 06:23:03;;;;;;;2.00;0.30;;;;;;;3.62;78.37;101918.28;5418986;26;20233;-67
2024/04/22 06:25:34;;;;;;;2.00;0.30;;;;;;;3.67;78.47;101919.25;5416381;26;20443;-67
2024/04/22 06:28:00;;;;;;;2.40;0.87;;;;;;;3.79;79.63;101914.81;5383723;26;20919;-67
2024/04/22 06:30:28;;;;;;;2.37;0.73;;;;;;;3.88;78.90;101920.69;5400643;26;20471;-67
2024/04/22 06:32:55;;;;;;;2.37;0.80;;;;;;;3.92;78.74;101916.53;5395049;26;20581;-67
2024/04/22 06:35:24;;;;;;;2.10;0.40;;;;;;;4.07;78.32;101915.31;5409714;26;20495;-68
2024/04/22 06:37:50;;;;;;;2.10;0.40;;;;;;;4.10;76.24;101910.34;5400260;26;20554;-67
2024/04/22 06:40:18;;;;;;;2.10;0.50;;;;;;;4.18;75.50;101910.03;5394493;26;20606;-67
2024/04/22 06:42:46;;;;;;;4.10;1.40;;;;;;;4.33;74.79;101919.53;5411347;26;20241;-67
2024/04/22 06:45:14;;;;;;;2.20;0.70;;;;;;;4.42;74.30;101915.50;5382566;26;20571;-67
2024/04/22 06:47:40;;;;;;;2.00;0.30;;;;;;;4.46;72.46;101914.81;5392031;26;20478;-66
2024/04/22 06:50:09;;;;;;;2.17;0.60;;;;;;;4.50;71.80;101917.88;5416872;26;20451;-66
2024/04/22 06:52:34;;;;;;;2.00;0.30;;;;;;;4.52;70.89;101915.81;5395041;26;20245;-67
2024/04/22 06:55:02;;;;;;;2.00;0.30;;;;;;;4.65;71.34;101918.28;5398558;26;20526;-67
2024/04/22 06:57:28;;;;;;;2.00;0.40;;;;;;;4.77;70.90;101913.75;5385384;26;20293;-68
2024/04/22 06:59:59;;;;;;;2.87;0.67;;;;;;;4.84;69.87;101912.84;5391250;26;20468;-69
2024/04/22 07:02:26;;;;;;;2.20;0.60;;;;;;;4.94;70.71;101911.25;5402849;26;20722;-67
2024/04/22 07:04:54;;;;;;;2.10;0.50;;;;;;;4.99;68.83;101915.91;5392443;26;20476;-70
2024/04/22 07:07:20;;;;;;;2.10;0.50;;;;;;;5.05;68.04;101909.63;5387648;26;20528;-67
2024/04/22 07:09:48;;;;;;;2.10;0.50;;;;;;;4.92;68.32;101910.66;5405202;26;21015;-67
2024/04/22 07:12:14;;;;;;;2.60;0.83;;;;;;;5.02;69.38;101910.91;5398541;26;20319;-67
2024/04/22 07:14:42;;;;;;;2.07;0.40;;;;;;;5.19;69.39;101904.88;5403690;26;20850;-67
2024/04/22 07:17:10;;;;;;;2.57;0.50;;;;;;;5.39;69.71;101907.19;5382569;26;20226;-67
2024/04/22 07:19:38;;;;;;;2.97;1.33;;;;;;;5.55;69.34;101903.81;5388873;26;20469;-66
2024/04/22 07:22:04;;;;;;;2.60;0.60;;;;;;;5.72;68.44;101914.69;5384901;26;20892;-67
2024/04/22 07:24:32;;;;;;;2.63;0.80;;;;;;;5.82;68.01;101910.31;5406880;26;20467;-67
2024/04/22 07:26:58;;;;;;;2.00;0.40;;;;;;;6.03;67.83;101914.28;5396697;26;20343;-67
2024/04/22 07:29:27;;;;;;;2.20;0.40;;;;;;;6.23;67.08;101913.88;5382405;26;20461;-67
2024/04/22 07:31:53;;;;;;;2.20;0.60;;;;;;;6.30;66.67;101916.44;5382044;26;20484;-67
2024/04/22 07:34:25;;;;;;;2.30;0.73;;;;;;;6.34;66.71;101919.47;5393365;26;20905;-67
2024/04/22 07:37:01;;;;;;;2.20;0.50;;;;;;;6.37;64.71;101913.59;5394331;26;20476;-67
2024/04/22 07:39:32;;;;;;;2.10;0.40;;;;;;;6.28;64.59;101922.03;5382113;26;20461;-66
2024/04/22 07:41:57;;;;;;;2.00;0.40;;;;;;;6.36;65.38;101915.47;5388651;26;20499;-66
2024/04/22 07:44:26;;;;;;;2.23;0.70;;;;;;;6.43;64.43;101926.91;5414556;26;20475;-67
2024/04/22 07:46:52;;;;;;;3.17;1.10;;;;;;;6.53;63.69;101920.91;5387925;26;20630;-67
2024/04/22 07:49:20;;;;;;;2.10;0.40;;;;;;;6.39;62.87;101920.38;5397644;26;20506;-70
2024/04/22 07:51:49;;;;;;;2.60;0.67;;;;;;;6.44;63.31;101922.34;5391067;26;20281;-68
2024/04/22 07:54:18;;;;;;;2.67;0.50;;;;;;;6.55;63.22;101918.78;5410037;26;20467;-67
2024/04/22 07:56:46;;;;;;;2.40;0.83;;;;;;;6.65;63.49;101924.38;5387214;26;20833;-67
2024/04/22 07:59:15;;;;;;;2.00;0.40;;;;;;;6.72;61.16;101919.63;5385147;26;20543;-67
2024/04/22 08:01:41;;;;;;;2.10;0.40;;;;;;;6.55;59.41;101924.16;5401970;26;20896;-66
2024/04/22 08:04:10;;;;;;;2.67;0.77;;;;;;;6.40;60.04;101923.88;5419658;26;20478;-67
2024/04/22 08:06:37;;;;;;;2.00;0.40;;;;;;;6.39;59.90;101920.38;5389362;26;20532;-67
2024/04/22 08:09:08;;;;;;;2.30;0.80;;;;;;;6.40;60.07;101918.50;5387608;26;20531;-67
2024/04/22 08:11:34;;;;;;;2.20;0.60;;;;;;;6.53;61.41;101921.72;5414707;26;21097;-67
2024/04/22 08:14:02;;;;;;;2.07;0.40;;;;;;;6.61;61.12;101923.22;5420690;26;21038;-66
2024/04/22 08:16:28;;;;;;;2.10;0.40;;;;;;;6.48;59.12;101918.13;5406312;26;20478;-67
2024/04/22 08:18:57;;;;;;;2.37;0.90;;;;;;;6.44;59.38;101917.78;5396215;26;20470;-67
2024/04/22 08:21:22;;;;;;;2.00;0.30;;;;;;;6.49;60.07;101915.19;5404107;26;20276;-67
2024/04/22 08:23:50;;;;;;;2.10;0.50;;;;;;;6.52;60.34;101919.28;5405958;26;20466;-67
2024/04/22 08:26:19;;;;;;;2.20;0.53;;;;;;;6.67;60.94;101918.75;5412447;26;20237;-67
2024/04/22 08:28:47;;;;;;;11.03;0.87;;;;;;;6.82;60.98;101908.25;5414529;26;20524;-67
2024/04/22 08:31:13;;;;;;;2.10;0.50;;;;;;;6.83;60.20;101910.69;5389319;26;20465;-68
2024/04/22 08:33:41;;;;;;;2.10;0.53;;;;;;;6.88;59.92;101918.03;5385861;26;20544;-67
2024/04/22 08:36:07;;;;;;;2.17;0.57;;;;;;;7.24;69.71;101905.97;5385195;26;20348;-67
2024/04/22 08:38:35;;;;;;;2.53;0.83;;;;;;;7.70;64.22;101908.50;5393000;26;20467;-67
2024/04/22 08:41:01;;;;;;;2.60;1.00;;;;;;;7.97;60.59;101914.81;5419232;26;20518;-67
2024/04/22 08:43:32;;;;;;;2.47;0.53;;;;;;;8.11;59.83;101911.75;5406342;26;20467;-67
2024/04/22 08:45:58;;;;;;;2.60;1.03;;;;;;;8.25;59.53;101911.09;5411575;26;20245;-67
2024/04/22 08:48:28;;;;;;;2.27;0.50;;;;;;;8.54;57.97;101905.50;5414860;26;21009;-68
2024/04/22 08:50:55;;;;;;;2.20;0.60;;;;;;;8.60;56.36;101909.91;5420425;26;20646;-68
2024/04/22 08:53:24;;;;;;;2.00;0.40;;;;;;;8.35;54.76;101910.41;5386742;26;21096;-68
2024/04/22 08:55:51;;;;;;;2.40;0.70;;;;;;;8.25;55.52;101913.00;5387396;26;20466;-69
2024/04/22 08:58:19;;;;;;;2.20;0.50;;;;;;;8.27;56.24;101902.75;5414118;26;20479;-67
2024/04/22 09:00:47;;;;;;;2.10;0.50;;;;;;;8.40;56.68;101906.97;5413567;26;20470;-66
2024/04/22 09:03:16;;;;;;;2.70;0.80;;;;;;;8.55;56.16;101904.44;5419305;26;20475;-68
2024/04/22 09:05:42;;;;;;;2.10;0.40;;;;;;;8.61;53.74;101905.31;5409044;26;20460;-68
2024/04/22 09:08:10;;;;;;;2.30;0.67;;;;;;;8.52;56.12;101894.97;5417378;26;20513;-68
2024/04/22 09:10:37;;;;;;;2.13;0.60;;;;;;;8.61;55.52;101902.59;5419813;26;20276;-68
2024/04/22 09:13:06;;;;;;;3.10;0.97;;;;;;;8.65;53.03;101901.84;5415774;26;21065;-67
2024/04/22 09:15:31;;;;;;;2.10;0.60;;;;;;;8.66;54.31;101908.06;5411339;26;20464;-68
2024/04/22 09:18:03;;;;;;;2.67;0.70;;;;;;;8.89;53.42;101905.00;5417073;26;20579;-68
2024/04/22 09:20:30;;;;;;;2.20;0.50;;;;;;;8.89;54.11;101906.91;5418481;26;20470;-68
2024/04/22 09:22:58;;;;;;;2.10;0.53;;;;;;;8.44;54.66;101908.91;5414297;26;20998;-68
2024/04/22 09:25:25;;;;;;;2.10;0.50;;;;;;;8.21;57.51;101909.97;5396494;26;20515;-68
2024/04/22 09:27:54;;;;;;;2.37;0.50;;;;;;;8.17;59.92;101908.03;5418073;26;20519;-68
2024/04/22 09:30:21;;;;;;;2.07;0.47;;;;;;;8.17;60.96;101902.63;5390707;26;20524;-68
2024/04/22 09:32:50;;;;;;;2.10;0.43;;;;;;;8.20;59.74;101897.56;5386187;26;20479;-68
2024/04/22 09:35:20;;;;;;;1.97;0.37;;;;;;;8.20;59.81;101894.84;5402588;26;20601;-69
2024/04/22 09:37:50;;;;;;;2.90;0.60;;;;;;;8.29;60.07;101892.53;5405925;26;20475;-68
2024/04/22 09:40:17;;;;;;;2.43;0.50;;;;;;;8.34;59.59;101896.09;5388429;26;20559;-68
2024/04/22 09:42:47;;;;;;;2.80;0.70;;;;;;;8.44;57.77;101891.91;5386294;26;21019;-67
2024/04/22 09:45:14;;;;;;;2.10;0.40;;;;;;;8.61;58.07;101900.72;5388297;26;20469;-68
2024/04/22 09:47:44;;;;;;;2.10;0.50;;;;;;;8.86;57.86;101896.63;5386240;26;20525;-67
2024/04/22 09:50:10;;;;;;;2.00;0.40;;;;;;;8.92;55.60;101906.41;5384040;26;20503;-67
2024/04/22 09:52:42;;;;;;;2.50;0.77;;;;;;;8.65;58.26;101904.53;5383808;26;21058;-68
2024/04/22 09:55:07;;;;;;;2.40;0.67;;;;;;;8.17;59.84;101903.44;5387164;26;20964;-67
2024/04/22 09:57:39;;;;;;;2.10;0.50;;;;;;;7.83;62.33;101895.50;5417346;26;20459;-67
2024/04/22 10:00:07;;;;;;;2.20;0.70;;;;;;;7.59;62.00;101897.59;5419198;26;20284;-68
2024/04/22 10:02:36;;;;;;;2.30;0.70;;;;;;;7.34;63.74;101892.63;5388448;26;20527;-67
2024/04/22 10:05:02;;;;;;;2.40;0.70;;;;;;;7.21;64.51;101889.47;5383600;26;20524;-68
2024/04/22 10:07:32;;;;;;;2.20;0.60;;;;;;;7.20;65.26;101888.66;5404992;26;20580;-68
2024/04/22 10:10:00;;;;;;;2.00;0.40;;;;;;;7.42;64.34;101899.50;5416598;26;20846;-67
2024/04/22 10:12:30;;;;;;;2.00;0.30;;;;;;;7.73;60.34;101891.84;5414094;26;20606;-68
2024/04/22 10:15:06;;;;;;;2.00;0.40;;;;;;;8.15;61.32;101894.00;5412647;26;20470;-67
2024/04/22 10:17:34;;;;;;;6.50;0.97;;;;;;;8.42;58.89;101894.84;5418123;26;20470;-68
2024/04/22 10:20:00;;;;;;;2.60;0.60;;;;;;;8.54;57.82;101892.00;5411459;26;20530;-68
2024/04/22 10:22:32;;;;;;;2.20;0.70;;;;;;;8.75;58.75;101891.13;5386919;26;20988;-68
2024/04/22 10:25:03;;;;;;;2.07;0.40;;;;;;;8.84;58.25;101894.97;5384627;26;20268;-68
2024/04/22 10:27:32;;;;;;;2.10;0.40;;;;;;;8.69;60.41;101888.63;5386498;26;21236;-68
2024/04/22 10:29:58;;;;;;;2.20;0.57;;;;;;;8.60;59.96;101891.00;5384001;26;20480;-66
2024/04/22 10:32:26;;;;;;;2.10;0.40;;;;;;;8.43;61.43;101885.69;5401480;26;20459;-67
2024/04/22 10:34:53;;;;;;;2.30;0.40;;;;;;;8.35;62.29;101888.81;5395219;26;20534;-67
2024/04/22 10:37:21;;;;;;;2.03;0.40;;;;;;;8.42;61.86;101884.06;5403022;26;20463;-68
2024/04/22 10:39:47;;;;;;;2.20;0.50;;;;;;;8.58;61.19;101876.91;5418574;26;20994;-67
2024/04/22 10:42:19;;;;;;;2.10;0.50;;;;;;;8.71;61.14;101879.19;5403163;26;20467;-68
2024/04/22 10:44:45;;;;;;;2.10;0.47;;;;;;;8.83;62.09;101874.44;5399453;26;20471;-67
2024/04/22 10:47:14;;;;;;;3.00;1.00;;;;;;;8.85;61.35;101887.69;5415888;26;20470;-67
2024/04/22 10:49:41;;;;;;;2.40;0.90;;;;;;;8.34;62.33;101893.38;5415654;26;21018;-68
2024/04/22 10:52:09;;;;;;;2.20;0.50;;;;;;;7.62;66.19;101896.28;5395960;26;20520;-68
2024/04/22 10:54:35;;;;;;;2.40;0.93;;;;;;;7.32;68.48;101888.56;5387116;26;20461;-69
2024/04/22 10:57:03;;;;;;;2.33;0.73;;;;;;;7.24;71.29;101881.72;5385461;26;20512;-68
2024/04/22 10:59:31;;;;;;;2.07;0.40;;;;;;;7.31;71.19;101884.25;5382800;26;20261;-68
2024/04/22 11:02:00;;;;;;;2.00;0.33;;;;;;;7.32;73.97;101884.00;5385496;26;20476;-68
2024/04/22 11:04:26;;;;;;;2.10;0.50;;;;;;;7.40;75.71;101882.75;5389013;26;20528;-68
2024/04/22 11:06:54;;;;;;;2.60;0.60;;;;;;;7.63;77.90;101886.31;5387426;26;20809;-68
2024/04/22 11:09:20;;;;;;;2.20;0.50;;;;;;;7.74;77.90;101877.28;5382632;26;20457;-68
2024/04/22 11:11:50;;;;;;;2.00;0.30;;;;;;;7.99;76.87;101874.09;5384187;26;20816;-68
2024/04/22 11:14:16;;;;;;;3.87;0.60;;;;;;;8.09;72.00;101874.19;5401192;26;20520;-67
2024/04/22 11:16:47;;;;;;;2.17;0.50;;;;;;;8.40;71.83;101869.16;5384896;26;20484;-68
2024/04/22 11:19:12;;;;;;;2.50;0.60;;;;;;;8.93;70.58;101867.50;5387508;26;20524;-68
2024/04/22 11:21:42;;;;;;;2.10;0.50;;;;;;;9.47;68.00;101862.72;5418005;26;20455;-67
2024/04/22 11:24:07;;;;;;;2.40;0.60;;;;;;;9.79;60.45;101865.34;5389000;26;20235;-68
2024/04/22 11:26:37;;;;;;;2.17;0.50;;;;;;;9.82;62.85;101859.38;5382556;26;20503;-67
2024/04/22 11:29:04;;;;;;;2.23;0.60;;;;;;;10.14;62.15;101855.72;5384910;26;20234;-70
2024/04/22 11:31:34;;;;;;;2.10;0.50;;;;;;;10.29;61.09;101846.84;5408710;26;20921;-70
2024/04/22 11:34:08;;;;;;;2.20;0.60;;;;;;;10.69;59.99;101850.69;5395136;26;20543;-68
2024/04/22 11:36:34;;;;;;;2.17;0.47;;;;;;;10.84;56.22;101854.19;5399947;26;20607;-67
2024/04/22 11:39:12;;;;;;;2.10;0.43;;;;;;;10.74;55.91;101853.41;5382438;26;20460;-67
2024/04/22 11:41:38;;;;;;;2.87;0.83;;;;;;;10.71;57.46;101856.63;5409901;26;20865;-67